Terminal Aerodrome Forecast
Issued by NWS Wilmington, OH

Current Version | Previous Version | Text Only | Print | Product List | Glossary Off
Versions: 1 2 3 4 5 6 7 8 9 10 11 12 13 14 15 16 17 18 19

329
FTUS41 KILN 070524
TAFDAY
TAF
KDAY 070524Z 0706/0806 20007KT P6SM FEW250
     FM071500 21014G22KT P6SM BKN150
     FM072300 22012KT P6SM BKN050 OVC120
     FM080300 20010KT P6SM VCSH SCT025 OVC035=

USA.gov is the U.S. government's official web portal to all federal, state and local government web resources and services.